sensor_id;sensor_type;location;lat;lon;timestamp;temperature;humidity
22813;DHT22;11573;51.334;3.244;2024-02-16T00:00:11;13.00;99.90
22813;DHT22;11573;51.334;3.244;2024-02-16T00:02:42;13.00;99.90
22813;DHT22;11573;51.334;3.244;2024-02-16T00:05:11;13.00;99.90
22813;DHT22;11573;51.334;3.244;2024-02-16T00:07:39;12.90;99.90
22813;DHT22;11573;51.334;3.244;2024-02-16T00:10:08;12.90;99.90
22813;DHT22;11573;51.334;3.244;2024-02-16T00:12:36;12.90;99.90
22813;DHT22;11573;51.334;3.244;2024-02-16T00:15:04;12.90;99.90
22813;DHT22;11573;51.334;3.244;2024-02-16T00:17:31;12.90;99.90
22813;DHT22;11573;51.334;3.244;2024-02-16T00:20:00;12.90;99.90
22813;DHT22;11573;51.334;3.244;2024-02-16T00:22:27;12.90;99.90
22813;DHT22;11573;51.334;3.244;2024-02-16T00:24:55;13.00;99.90
22813;DHT22;11573;51.334;3.244;2024-02-16T00:27:21;12.90;99.90
22813;DHT22;11573;51.334;3.244;2024-02-16T00:29:49;12.90;99.90
22813;DHT22;11573;51.334;3.244;2024-02-16T00:32:17;13.00;99.90
22813;DHT22;11573;51.334;3.244;2024-02-16T00:34:44;13.00;99.90
22813;DHT22;11573;51.334;3.244;2024-02-16T00:37:11;13.00;99.90
22813;DHT22;11573;51.334;3.244;2024-02-16T00:39:39;13.00;99.90
22813;DHT22;11573;51.334;3.244;2024-02-16T00:42:09;13.00;99.90
22813;DHT22;11573;51.334;3.244;2024-02-16T00:44:38;12.90;99.90
22813;DHT22;11573;51.334;3.244;2024-02-16T00:47:05;13.00;99.90
22813;DHT22;11573;51.334;3.244;2024-02-16T00:49:33;12.90;99.90
22813;DHT22;11573;51.334;3.244;2024-02-16T00:52:01;12.90;99.90
22813;DHT22;11573;51.334;3.244;2024-02-16T00:54:29;12.90;99.90
22813;DHT22;11573;51.334;3.244;2024-02-16T00:56:56;12.90;99.90
22813;DHT22;11573;51.334;3.244;2024-02-16T00:59:29;12.90;99.90
22813;DHT22;11573;51.334;3.244;2024-02-16T01:01:56;12.90;99.90
22813;DHT22;11573;51.334;3.244;2024-02-16T01:04:24;13.00;99.90
22813;DHT22;11573;51.334;3.244;2024-02-16T01:06:51;13.00;99.90
22813;DHT22;11573;51.334;3.244;2024-02-16T01:09:18;13.00;99.90
22813;DHT22;11573;51.334;3.244;2024-02-16T01:11:45;12.90;99.90
22813;DHT22;11573;51.334;3.244;2024-02-16T01:14:13;12.90;99.90
22813;DHT22;11573;51.334;3.244;2024-02-16T01:16:40;12.90;99.90
22813;DHT22;11573;51.334;3.244;2024-02-16T01:19:08;12.90;99.90
22813;DHT22;11573;51.334;3.244;2024-02-16T01:21:37;12.80;99.90
22813;DHT22;11573;51.334;3.244;2024-02-16T01:24:05;12.90;99.90
22813;DHT22;11573;51.334;3.244;2024-02-16T01:26:32;12.80;99.90
22813;DHT22;11573;51.334;3.244;2024-02-16T01:29:00;12.80;99.90
22813;DHT22;11573;51.334;3.244;2024-02-16T01:31:28;12.80;99.90
22813;DHT22;11573;51.334;3.244;2024-02-16T01:33:56;12.80;99.90
22813;DHT22;11573;51.334;3.244;2024-02-16T01:36:23;12.80;99.90
22813;DHT22;11573;51.334;3.244;2024-02-16T01:38:50;12.80;99.90
22813;DHT22;11573;51.334;3.244;2024-02-16T01:41:18;12.80;99.90
22813;DHT22;11573;51.334;3.244;2024-02-16T01:43:45;12.80;99.90
22813;DHT22;11573;51.334;3.244;2024-02-16T01:46:12;12.90;99.90
22813;DHT22;11573;51.334;3.244;2024-02-16T01:48:39;12.80;99.90
22813;DHT22;11573;51.334;3.244;2024-02-16T01:51:08;12.70;99.90
22813;DHT22;11573;51.334;3.244;2024-02-16T01:53:37;12.70;99.90
22813;DHT22;11573;51.334;3.244;2024-02-16T01:56:05;12.70;99.90
22813;DHT22;11573;51.334;3.244;2024-02-16T01:58:33;12.70;99.90
22813;DHT22;11573;51.334;3.244;2024-02-16T02:01:00;12.60;99.90
22813;DHT22;11573;51.334;3.244;2024-02-16T02:03:29;12.60;99.90
22813;DHT22;11573;51.334;3.244;2024-02-16T02:05:56;12.60;99.90
22813;DHT22;11573;51.334;3.244;2024-02-16T02:08:24;12.60;99.90
22813;DHT22;11573;51.334;3.244;2024-02-16T02:10:53;12.50;99.90
22813;DHT22;11573;51.334;3.244;2024-02-16T02:13:20;12.40;99.90
22813;DHT22;11573;51.334;3.244;2024-02-16T02:15:49;12.40;99.90
22813;DHT22;11573;51.334;3.244;2024-02-16T02:18:16;12.40;99.90
22813;DHT22;11573;51.334;3.244;2024-02-16T02:20:44;12.40;99.90
22813;DHT22;11573;51.334;3.244;2024-02-16T02:23:11;12.40;99.90
22813;DHT22;11573;51.334;3.244;2024-02-16T02:25:39;12.40;99.90
22813;DHT22;11573;51.334;3.244;2024-02-16T02:28:07;12.30;99.90
22813;DHT22;11573;51.334;3.244;2024-02-16T02:30:35;12.30;99.90
22813;DHT22;11573;51.334;3.244;2024-02-16T02:33:05;12.30;99.90
22813;DHT22;11573;51.334;3.244;2024-02-16T02:35:32;12.30;99.90
22813;DHT22;11573;51.334;3.244;2024-02-16T02:37:59;12.30;99.90
22813;DHT22;11573;51.334;3.244;2024-02-16T02:40:26;12.10;99.90
22813;DHT22;11573;51.334;3.244;2024-02-16T02:42:54;12.10;99.90
22813;DHT22;11573;51.334;3.244;2024-02-16T02:45:21;12.20;99.90
22813;DHT22;11573;51.334;3.244;2024-02-16T02:47:48;12.20;99.90
22813;DHT22;11573;51.334;3.244;2024-02-16T02:50:16;12.20;99.90
22813;DHT22;11573;51.334;3.244;2024-02-16T02:52:44;12.20;99.90
22813;DHT22;11573;51.334;3.244;2024-02-16T02:55:12;12.10;99.90
22813;DHT22;11573;51.334;3.244;2024-02-16T02:57:39;12.20;99.90
22813;DHT22;11573;51.334;3.244;2024-02-16T03:00:07;12.20;99.90
22813;DHT22;11573;51.334;3.244;2024-02-16T03:02:40;12.20;99.90
22813;DHT22;11573;51.334;3.244;2024-02-16T03:05:07;12.20;99.90
22813;DHT22;11573;51.334;3.244;2024-02-16T03:07:35;12.20;99.90
22813;DHT22;11573;51.334;3.244;2024-02-16T03:10:03;12.20;99.90
22813;DHT22;11573;51.334;3.244;2024-02-16T03:12:31;12.30;99.90
22813;DHT22;11573;51.334;3.244;2024-02-16T03:14:59;12.20;99.90
22813;DHT22;11573;51.334;3.244;2024-02-16T03:17:26;12.20;99.90
22813;DHT22;11573;51.334;3.244;2024-02-16T03:19:53;12.30;99.90
22813;DHT22;11573;51.334;3.244;2024-02-16T03:22:21;12.30;99.90
22813;DHT22;11573;51.334;3.244;2024-02-16T03:24:48;12.30;99.90
22813;DHT22;11573;51.334;3.244;2024-02-16T03:27:15;12.40;99.90
22813;DHT22;11573;51.334;3.244;2024-02-16T03:29:43;12.30;99.90
22813;DHT22;11573;51.334;3.244;2024-02-16T03:32:10;12.40;99.90
22813;DHT22;11573;51.334;3.244;2024-02-16T03:34:38;12.50;99.90
22813;DHT22;11573;51.334;3.244;2024-02-16T03:37:05;12.60;99.90
22813;DHT22;11573;51.334;3.244;2024-02-16T03:39:32;12.70;99.90
22813;DHT22;11573;51.334;3.244;2024-02-16T03:42:00;12.70;99.90
22813;DHT22;11573;51.334;3.244;2024-02-16T03:44:27;12.70;99.90
22813;DHT22;11573;51.334;3.244;2024-02-16T03:46:54;12.80;99.90
22813;DHT22;11573;51.334;3.244;2024-02-16T03:49:24;12.90;99.90
22813;DHT22;11573;51.334;3.244;2024-02-16T03:51:52;13.00;99.90
22813;DHT22;11573;51.334;3.244;2024-02-16T03:54:20;13.10;99.90
22813;DHT22;11573;51.334;3.244;2024-02-16T03:56:47;13.10;99.90
22813;DHT22;11573;51.334;3.244;2024-02-16T03:59:15;13.20;99.90
22813;DHT22;11573;51.334;3.244;2024-02-16T04:01:42;13.20;99.90
22813;DHT22;11573;51.334;3.244;2024-02-16T04:04:09;13.20;99.90
22813;DHT22;11573;51.334;3.244;2024-02-16T04:06:37;13.30;99.90
22813;DHT22;11573;51.334;3.244;2024-02-16T04:09:05;13.30;99.90
22813;DHT22;11573;51.334;3.244;2024-02-16T04:11:33;13.30;99.90
22813;DHT22;11573;51.334;3.244;2024-02-16T04:14:01;13.30;99.90
22813;DHT22;11573;51.334;3.244;2024-02-16T04:16:28;13.30;99.90
22813;DHT22;11573;51.334;3.244;2024-02-16T04:18:56;13.30;99.90
22813;DHT22;11573;51.334;3.244;2024-02-16T04:21:23;13.30;99.90
22813;DHT22;11573;51.334;3.244;2024-02-16T04:23:50;13.30;99.90
22813;DHT22;11573;51.334;3.244;2024-02-16T04:26:18;13.30;99.90
22813;DHT22;11573;51.334;3.244;2024-02-16T04:28:45;13.30;99.90
22813;DHT22;11573;51.334;3.244;2024-02-16T04:31:12;13.30;99.90
22813;DHT22;11573;51.334;3.244;2024-02-16T04:33:39;13.30;99.90
22813;DHT22;11573;51.334;3.244;2024-02-16T04:36:07;13.20;99.90
22813;DHT22;11573;51.334;3.244;2024-02-16T04:38:35;13.20;99.90
22813;DHT22;11573;51.334;3.244;2024-02-16T04:41:05;13.20;99.90
22813;DHT22;11573;51.334;3.244;2024-02-16T04:43:33;13.20;99.90
22813;DHT22;11573;51.334;3.244;2024-02-16T04:46:00;13.10;99.90
22813;DHT22;11573;51.334;3.244;2024-02-16T04:48:27;13.10;99.90
22813;DHT22;11573;51.334;3.244;2024-02-16T04:50:56;13.10;99.90
22813;DHT22;11573;51.334;3.244;2024-02-16T04:53:23;13.10;99.90
22813;DHT22;11573;51.334;3.244;2024-02-16T04:55:50;13.10;99.90
22813;DHT22;11573;51.334;3.244;2024-02-16T04:58:17;13.10;99.90
22813;DHT22;11573;51.334;3.244;2024-02-16T05:00:44;13.10;99.90
22813;DHT22;11573;51.334;3.244;2024-02-16T05:03:14;13.10;99.90
22813;DHT22;11573;51.334;3.244;2024-02-16T05:05:41;13.10;99.90
22813;DHT22;11573;51.334;3.244;2024-02-16T05:08:09;13.00;99.90
22813;DHT22;11573;51.334;3.244;2024-02-16T05:10:36;13.00;99.90
22813;DHT22;11573;51.334;3.244;2024-02-16T05:13:04;13.00;99.90
22813;DHT22;11573;51.334;3.244;2024-02-16T05:15:31;13.00;99.90
22813;DHT22;11573;51.334;3.244;2024-02-16T05:18:00;13.00;99.90
22813;DHT22;11573;51.334;3.244;2024-02-16T05:20:27;12.90;99.90
22813;DHT22;11573;51.334;3.244;2024-02-16T05:22:55;12.90;99.90
22813;DHT22;11573;51.334;3.244;2024-02-16T05:25:23;12.90;99.90
22813;DHT22;11573;51.334;3.244;2024-02-16T05:27:50;12.80;99.90
22813;DHT22;11573;51.334;3.244;2024-02-16T05:30:17;12.80;99.90
22813;DHT22;11573;51.334;3.244;2024-02-16T05:32:45;12.80;99.90
22813;DHT22;11573;51.334;3.244;2024-02-16T05:35:13;12.90;99.90
22813;DHT22;11573;51.334;3.244;2024-02-16T05:37:45;12.90;99.90
22813;DHT22;11573;51.334;3.244;2024-02-16T05:40:16;13.00;99.90
22813;DHT22;11573;51.334;3.244;2024-02-16T05:42:56;13.00;99.90
22813;DHT22;11573;51.334;3.244;2024-02-16T05:45:27;13.10;99.90
22813;DHT22;11573;51.334;3.244;2024-02-16T05:47:54;13.10;99.90
22813;DHT22;11573;51.334;3.244;2024-02-16T05:50:21;13.10;99.90
22813;DHT22;11573;51.334;3.244;2024-02-16T05:52:50;13.10;99.90
22813;DHT22;11573;51.334;3.244;2024-02-16T05:55:18;13.10;99.90
22813;DHT22;11573;51.334;3.244;2024-02-16T05:57:46;13.10;99.90
22813;DHT22;11573;51.334;3.244;2024-02-16T06:00:14;13.10;99.90
22813;DHT22;11573;51.334;3.244;2024-02-16T06:02:43;13.10;99.90
22813;DHT22;11573;51.334;3.244;2024-02-16T06:05:10;13.10;99.90
22813;DHT22;11573;51.334;3.244;2024-02-16T06:07:38;13.10;99.90
22813;DHT22;11573;51.334;3.244;2024-02-16T06:10:06;13.10;99.90
22813;DHT22;11573;51.334;3.244;2024-02-16T06:12:38;13.00;99.90
22813;DHT22;11573;51.334;3.244;2024-02-16T06:15:07;13.10;99.90
22813;DHT22;11573;51.334;3.244;2024-02-16T06:17:35;13.10;99.90
22813;DHT22;11573;51.334;3.244;2024-02-16T06:20:06;13.10;99.90
22813;DHT22;11573;51.334;3.244;2024-02-16T06:22:36;13.10;99.90
22813;DHT22;11573;51.334;3.244;2024-02-16T06:25:04;13.10;99.90
22813;DHT22;11573;51.334;3.244;2024-02-16T06:27:31;13.10;99.90
22813;DHT22;11573;51.334;3.244;2024-02-16T06:29:59;13.10;99.90
22813;DHT22;11573;51.334;3.244;2024-02-16T06:32:27;13.10;99.90
22813;DHT22;11573;51.334;3.244;2024-02-16T06:34:55;13.10;99.90
22813;DHT22;11573;51.334;3.244;2024-02-16T06:37:22;13.10;99.90
22813;DHT22;11573;51.334;3.244;2024-02-16T06:39:50;13.10;99.90
22813;DHT22;11573;51.334;3.244;2024-02-16T06:42:17;13.10;99.90
22813;DHT22;11573;51.334;3.244;2024-02-16T06:44:44;13.10;99.90
22813;DHT22;11573;51.334;3.244;2024-02-16T06:47:11;13.10;99.90
22813;DHT22;11573;51.334;3.244;2024-02-16T06:49:38;13.10;99.90
22813;DHT22;11573;51.334;3.244;2024-02-16T06:52:05;13.10;99.90
22813;DHT22;11573;51.334;3.244;2024-02-16T06:54:32;13.10;99.90
22813;DHT22;11573;51.334;3.244;2024-02-16T06:57:00;13.00;99.90
22813;DHT22;11573;51.334;3.244;2024-02-16T06:59:28;13.00;99.90
22813;DHT22;11573;51.334;3.244;2024-02-16T07:01:55;13.00;99.90
22813;DHT22;11573;51.334;3.244;2024-02-16T07:04:22;13.00;99.90
22813;DHT22;11573;51.334;3.244;2024-02-16T07:06:49;12.90;99.90
22813;DHT22;11573;51.334;3.244;2024-02-16T07:09:16;12.90;99.90
22813;DHT22;11573;51.334;3.244;2024-02-16T07:11:43;12.90;99.90
22813;DHT22;11573;51.334;3.244;2024-02-16T07:14:17;12.90;99.90
22813;DHT22;11573;51.334;3.244;2024-02-16T07:16:44;12.90;99.90
22813;DHT22;11573;51.334;3.244;2024-02-16T07:19:12;12.90;99.90
22813;DHT22;11573;51.334;3.244;2024-02-16T07:21:40;12.80;99.90
22813;DHT22;11573;51.334;3.244;2024-02-16T07:24:07;12.80;99.90
22813;DHT22;11573;51.334;3.244;2024-02-16T07:26:36;12.70;99.90
22813;DHT22;11573;51.334;3.244;2024-02-16T07:29:03;12.70;99.90
22813;DHT22;11573;51.334;3.244;2024-02-16T07:31:34;12.80;99.90
22813;DHT22;11573;51.334;3.244;2024-02-16T07:34:02;12.80;99.90
22813;DHT22;11573;51.334;3.244;2024-02-16T07:36:29;12.80;99.90
22813;DHT22;11573;51.334;3.244;2024-02-16T07:38:57;12.80;99.90
22813;DHT22;11573;51.334;3.244;2024-02-16T07:41:25;12.80;99.90
22813;DHT22;11573;51.334;3.244;2024-02-16T07:43:52;12.80;99.90
22813;DHT22;11573;51.334;3.244;2024-02-16T07:46:19;12.80;99.90
22813;DHT22;11573;51.334;3.244;2024-02-16T07:48:46;12.80;99.90
22813;DHT22;11573;51.334;3.244;2024-02-16T07:51:13;12.80;99.90
22813;DHT22;11573;51.334;3.244;2024-02-16T07:53:41;12.80;99.90
22813;DHT22;11573;51.334;3.244;2024-02-16T07:56:11;12.80;99.90
22813;DHT22;11573;51.334;3.244;2024-02-16T07:58:40;12.80;99.90
22813;DHT22;11573;51.334;3.244;2024-02-16T08:01:08;12.80;99.90
22813;DHT22;11573;51.334;3.244;2024-02-16T08:03:37;12.80;99.90
22813;DHT22;11573;51.334;3.244;2024-02-16T08:06:05;12.80;99.90
22813;DHT22;11573;51.334;3.244;2024-02-16T08:08:32;12.80;99.90
22813;DHT22;11573;51.334;3.244;2024-02-16T08:10:59;12.80;99.90
22813;DHT22;11573;51.334;3.244;2024-02-16T08:13:27;12.80;99.90
22813;DHT22;11573;51.334;3.244;2024-02-16T08:15:55;12.80;99.90
22813;DHT22;11573;51.334;3.244;2024-02-16T08:18:23;12.70;99.90
22813;DHT22;11573;51.334;3.244;2024-02-16T08:20:51;12.70;99.90
22813;DHT22;11573;51.334;3.244;2024-02-16T08:23:19;12.70;99.90
22813;DHT22;11573;51.334;3.244;2024-02-16T08:25:47;12.60;99.90
22813;DHT22;11573;51.334;3.244;2024-02-16T08:28:14;12.60;99.90
22813;DHT22;11573;51.334;3.244;2024-02-16T08:30:41;12.50;99.90
22813;DHT22;11573;51.334;3.244;2024-02-16T08:33:11;12.60;99.90
22813;DHT22;11573;51.334;3.244;2024-02-16T08:35:40;12.50;99.90
22813;DHT22;11573;51.334;3.244;2024-02-16T08:38:07;12.50;99.90
22813;DHT22;11573;51.334;3.244;2024-02-16T08:40:38;12.40;99.90
22813;DHT22;11573;51.334;3.244;2024-02-16T08:43:05;12.30;99.90
22813;DHT22;11573;51.334;3.244;2024-02-16T08:45:34;12.30;99.90
22813;DHT22;11573;51.334;3.244;2024-02-16T08:48:01;12.20;99.90
22813;DHT22;11573;51.334;3.244;2024-02-16T08:50:31;12.10;99.90
22813;DHT22;11573;51.334;3.244;2024-02-16T08:52:58;12.00;99.90
22813;DHT22;11573;51.334;3.244;2024-02-16T08:55:25;11.90;99.90
22813;DHT22;11573;51.334;3.244;2024-02-16T08:57:53;11.90;99.90
22813;DHT22;11573;51.334;3.244;2024-02-16T09:00:20;11.80;99.90
22813;DHT22;11573;51.334;3.244;2024-02-16T09:02:47;11.80;99.90
22813;DHT22;11573;51.334;3.244;2024-02-16T09:05:14;11.70;99.90
22813;DHT22;11573;51.334;3.244;2024-02-16T09:07:41;11.70;99.90
22813;DHT22;11573;51.334;3.244;2024-02-16T09:10:08;11.60;99.90
22813;DHT22;11573;51.334;3.244;2024-02-16T09:12:35;11.60;99.90
22813;DHT22;11573;51.334;3.244;2024-02-16T09:15:02;11.60;99.90
22813;DHT22;11573;51.334;3.244;2024-02-16T09:17:30;11.50;99.90
22813;DHT22;11573;51.334;3.244;2024-02-16T09:19:58;11.50;99.90
22813;DHT22;11573;51.334;3.244;2024-02-16T09:22:25;11.50;99.90
22813;DHT22;11573;51.334;3.244;2024-02-16T09:24:55;11.50;99.90
22813;DHT22;11573;51.334;3.244;2024-02-16T09:27:26;11.50;99.90
22813;DHT22;11573;51.334;3.244;2024-02-16T09:29:54;11.50;99.90
22813;DHT22;11573;51.334;3.244;2024-02-16T09:32:22;11.50;99.90
22813;DHT22;11573;51.334;3.244;2024-02-16T09:34:49;11.60;99.90
22813;DHT22;11573;51.334;3.244;2024-02-16T09:37:18;11.60;99.90
22813;DHT22;11573;51.334;3.244;2024-02-16T09:39:45;11.60;99.90
22813;DHT22;11573;51.334;3.244;2024-02-16T09:42:12;11.60;99.90
22813;DHT22;11573;51.334;3.244;2024-02-16T09:44:42;11.60;99.90
22813;DHT22;11573;51.334;3.244;2024-02-16T09:47:09;11.60;99.90
22813;DHT22;11573;51.334;3.244;2024-02-16T09:49:40;11.60;99.90
22813;DHT22;11573;51.334;3.244;2024-02-16T09:52:10;11.60;99.90
22813;DHT22;11573;51.334;3.244;2024-02-16T09:54:40;11.60;99.90
22813;DHT22;11573;51.334;3.244;2024-02-16T09:57:08;11.60;99.90
22813;DHT22;11573;51.334;3.244;2024-02-16T09:59:35;11.60;99.90
22813;DHT22;11573;51.334;3.244;2024-02-16T10:02:03;11.50;99.90
22813;DHT22;11573;51.334;3.244;2024-02-16T10:04:34;11.40;99.90
22813;DHT22;11573;51.334;3.244;2024-02-16T10:07:03;11.30;99.90
22813;DHT22;11573;51.334;3.244;2024-02-16T10:09:39;11.20;99.90
22813;DHT22;11573;51.334;3.244;2024-02-16T10:12:10;11.10;99.90
22813;DHT22;11573;51.334;3.244;2024-02-16T10:14:37;11.10;99.90
22813;DHT22;11573;51.334;3.244;2024-02-16T10:17:07;11.10;99.90
22813;DHT22;11573;51.334;3.244;2024-02-16T10:19:36;11.10;99.90
22813;DHT22;11573;51.334;3.244;2024-02-16T10:22:11;11.10;99.90
22813;DHT22;11573;51.334;3.244;2024-02-16T10:24:39;11.10;99.90
22813;DHT22;11573;51.334;3.244;2024-02-16T10:27:17;11.10;99.90
22813;DHT22;11573;51.334;3.244;2024-02-16T10:29:47;11.10;99.90
22813;DHT22;11573;51.334;3.244;2024-02-16T10:32:18;11.10;99.90
22813;DHT22;11573;51.334;3.244;2024-02-16T10:34:47;11.20;99.90
22813;DHT22;11573;51.334;3.244;2024-02-16T10:37:16;11.20;99.90
22813;DHT22;11573;51.334;3.244;2024-02-16T10:39:44;11.20;99.90
22813;DHT22;11573;51.334;3.244;2024-02-16T10:42:13;11.20;99.90
22813;DHT22;11573;51.334;3.244;2024-02-16T10:44:41;11.30;99.90
22813;DHT22;11573;51.334;3.244;2024-02-16T10:47:09;11.30;99.90
22813;DHT22;11573;51.334;3.244;2024-02-16T10:49:36;11.40;99.90
22813;DHT22;11573;51.334;3.244;2024-02-16T10:52:05;11.60;99.90
22813;DHT22;11573;51.334;3.244;2024-02-16T10:54:33;11.80;99.90
22813;DHT22;11573;51.334;3.244;2024-02-16T10:57:01;11.90;99.90
22813;DHT22;11573;51.334;3.244;2024-02-16T10:59:40;11.90;99.90
22813;DHT22;11573;51.334;3.244;2024-02-16T11:02:08;11.80;99.90
22813;DHT22;11573;51.334;3.244;2024-02-16T11:04:37;12.10;99.90
22813;DHT22;11573;51.334;3.244;2024-02-16T11:07:15;12.20;99.90
22813;DHT22;11573;51.334;3.244;2024-02-16T11:09:44;12.10;99.90
22813;DHT22;11573;51.334;3.244;2024-02-16T11:12:13;12.20;99.90
22813;DHT22;11573;51.334;3.244;2024-02-16T11:14:43;12.20;99.90
22813;DHT22;11573;51.334;3.244;2024-02-16T11:17:15;12.20;99.90
22813;DHT22;11573;51.334;3.244;2024-02-16T11:19:47;12.30;99.90
22813;DHT22;11573;51.334;3.244;2024-02-16T11:22:19;12.20;99.90
22813;DHT22;11573;51.334;3.244;2024-02-16T11:24:49;12.50;99.90
22813;DHT22;11573;51.334;3.244;2024-02-16T11:27:17;12.50;99.90
22813;DHT22;11573;51.334;3.244;2024-02-16T11:29:49;12.80;99.90
22813;DHT22;11573;51.334;3.244;2024-02-16T11:32:18;13.00;99.90
22813;DHT22;11573;51.334;3.244;2024-02-16T11:34:46;13.10;99.90
22813;DHT22;11573;51.334;3.244;2024-02-16T11:37:13;13.00;99.90
22813;DHT22;11573;51.334;3.244;2024-02-16T11:39:44;13.00;99.90
22813;DHT22;11573;51.334;3.244;2024-02-16T11:42:19;12.90;99.90
22813;DHT22;11573;51.334;3.244;2024-02-16T11:44:54;12.90;99.90
22813;DHT22;11573;51.334;3.244;2024-02-16T11:47:24;12.80;99.90
22813;DHT22;11573;51.334;3.244;2024-02-16T11:50:02;12.80;99.90
22813;DHT22;11573;51.334;3.244;2024-02-16T11:52:29;12.70;99.90
22813;DHT22;11573;51.334;3.244;2024-02-16T11:54:56;12.50;99.90
22813;DHT22;11573;51.334;3.244;2024-02-16T11:57:28;12.60;99.90
22813;DHT22;11573;51.334;3.244;2024-02-16T11:59:56;12.60;99.90
22813;DHT22;11573;51.334;3.244;2024-02-16T12:02:24;12.50;99.90
22813;DHT22;11573;51.334;3.244;2024-02-16T12:04:59;12.40;99.90
22813;DHT22;11573;51.334;3.244;2024-02-16T12:07:30;12.40;99.90
22813;DHT22;11573;51.334;3.244;2024-02-16T12:10:02;12.30;99.90
22813;DHT22;11573;51.334;3.244;2024-02-16T12:12:33;12.40;99.90
22813;DHT22;11573;51.334;3.244;2024-02-16T12:15:01;12.50;99.90
22813;DHT22;11573;51.334;3.244;2024-02-16T12:17:29;12.30;99.90
22813;DHT22;11573;51.334;3.244;2024-02-16T12:19:56;12.30;99.90
22813;DHT22;11573;51.334;3.244;2024-02-16T12:22:23;12.30;99.90
22813;DHT22;11573;51.334;3.244;2024-02-16T12:24:51;12.20;99.90
22813;DHT22;11573;51.334;3.244;2024-02-16T12:27:18;12.00;99.90
22813;DHT22;11573;51.334;3.244;2024-02-16T12:29:45;12.00;99.90
22813;DHT22;11573;51.334;3.244;2024-02-16T12:32:13;11.90;99.90
22813;DHT22;11573;51.334;3.244;2024-02-16T12:34:46;12.00;99.90
22813;DHT22;11573;51.334;3.244;2024-02-16T12:37:14;12.00;99.90
22813;DHT22;11573;51.334;3.244;2024-02-16T12:39:41;12.10;99.90
22813;DHT22;11573;51.334;3.244;2024-02-16T12:42:08;12.20;99.90
22813;DHT22;11573;51.334;3.244;2024-02-16T12:44:36;12.10;99.90
22813;DHT22;11573;51.334;3.244;2024-02-16T12:47:03;12.10;99.90
22813;DHT22;11573;51.334;3.244;2024-02-16T12:49:30;12.10;99.90
22813;DHT22;11573;51.334;3.244;2024-02-16T12:51:58;12.10;99.90
22813;DHT22;11573;51.334;3.244;2024-02-16T12:54:25;12.00;99.90
22813;DHT22;11573;51.334;3.244;2024-02-16T12:56:52;12.00;99.90
22813;DHT22;11573;51.334;3.244;2024-02-16T12:59:21;12.00;99.90
22813;DHT22;11573;51.334;3.244;2024-02-16T13:01:48;11.90;99.90
22813;DHT22;11573;51.334;3.244;2024-02-16T13:04:17;12.00;99.90
22813;DHT22;11573;51.334;3.244;2024-02-16T13:06:49;12.00;99.90
22813;DHT22;11573;51.334;3.244;2024-02-16T13:09:17;12.10;99.90
22813;DHT22;11573;51.334;3.244;2024-02-16T13:11:45;12.10;99.90
22813;DHT22;11573;51.334;3.244;2024-02-16T13:14:12;12.30;99.90
22813;DHT22;11573;51.334;3.244;2024-02-16T13:16:39;12.30;99.90
22813;DHT22;11573;51.334;3.244;2024-02-16T13:19:07;12.40;99.90
22813;DHT22;11573;51.334;3.244;2024-02-16T13:21:34;12.30;99.90
22813;DHT22;11573;51.334;3.244;2024-02-16T13:24:02;12.30;99.90
22813;DHT22;11573;51.334;3.244;2024-02-16T13:26:30;12.20;99.90
22813;DHT22;11573;51.334;3.244;2024-02-16T13:28:57;12.30;99.90
22813;DHT22;11573;51.334;3.244;2024-02-16T13:31:25;12.30;99.90
22813;DHT22;11573;51.334;3.244;2024-02-16T13:33:53;12.50;99.90
22813;DHT22;11573;51.334;3.244;2024-02-16T13:36:21;12.50;99.90
22813;DHT22;11573;51.334;3.244;2024-02-16T13:38:49;12.50;99.90
22813;DHT22;11573;51.334;3.244;2024-02-16T13:41:16;12.50;99.90
22813;DHT22;11573;51.334;3.244;2024-02-16T13:43:46;12.50;99.90
22813;DHT22;11573;51.334;3.244;2024-02-16T13:46:14;12.40;99.90
22813;DHT22;11573;51.334;3.244;2024-02-16T13:48:42;12.50;99.90
22813;DHT22;11573;51.334;3.244;2024-02-16T13:51:09;12.60;99.90
22813;DHT22;11573;51.334;3.244;2024-02-16T13:53:37;12.70;99.90
22813;DHT22;11573;51.334;3.244;2024-02-16T13:56:05;12.50;99.90
22813;DHT22;11573;51.334;3.244;2024-02-16T13:58:33;12.40;99.90
22813;DHT22;11573;51.334;3.244;2024-02-16T14:01:02;12.50;99.90
22813;DHT22;11573;51.334;3.244;2024-02-16T14:03:36;12.70;99.90
22813;DHT22;11573;51.334;3.244;2024-02-16T14:06:05;12.80;99.90
22813;DHT22;11573;51.334;3.244;2024-02-16T14:08:33;12.80;99.90
22813;DHT22;11573;51.334;3.244;2024-02-16T14:11:01;13.00;99.90
22813;DHT22;11573;51.334;3.244;2024-02-16T14:13:28;12.80;99.90
22813;DHT22;11573;51.334;3.244;2024-02-16T14:15:55;12.70;99.90
22813;DHT22;11573;51.334;3.244;2024-02-16T14:18:23;12.80;99.90
22813;DHT22;11573;51.334;3.244;2024-02-16T14:21:02;12.90;99.90
22813;DHT22;11573;51.334;3.244;2024-02-16T14:23:30;13.00;99.90
22813;DHT22;11573;51.334;3.244;2024-02-16T14:25:59;12.90;99.90
22813;DHT22;11573;51.334;3.244;2024-02-16T14:28:26;12.80;99.90
22813;DHT22;11573;51.334;3.244;2024-02-16T14:30:54;12.90;99.90
22813;DHT22;11573;51.334;3.244;2024-02-16T14:33:21;12.90;99.90
22813;DHT22;11573;51.334;3.244;2024-02-16T14:36:01;12.90;99.90
22813;DHT22;11573;51.334;3.244;2024-02-16T14:38:28;13.10;99.90
22813;DHT22;11573;51.334;3.244;2024-02-16T14:40:56;13.10;99.90
22813;DHT22;11573;51.334;3.244;2024-02-16T14:43:23;13.10;99.90
22813;DHT22;11573;51.334;3.244;2024-02-16T14:45:50;13.20;99.90
22813;DHT22;11573;51.334;3.244;2024-02-16T14:48:19;13.10;99.90
22813;DHT22;11573;51.334;3.244;2024-02-16T14:50:46;12.90;99.90
22813;DHT22;11573;51.334;3.244;2024-02-16T14:53:13;12.80;99.90
22813;DHT22;11573;51.334;3.244;2024-02-16T14:55:41;12.80;99.90
22813;DHT22;11573;51.334;3.244;2024-02-16T14:58:08;12.60;99.90
22813;DHT22;11573;51.334;3.244;2024-02-16T15:00:35;12.50;99.90
22813;DHT22;11573;51.334;3.244;2024-02-16T15:03:04;12.50;99.90
22813;DHT22;11573;51.334;3.244;2024-02-16T15:05:33;12.40;99.90
22813;DHT22;11573;51.334;3.244;2024-02-16T15:08:01;12.30;99.90
22813;DHT22;11573;51.334;3.244;2024-02-16T15:10:29;12.30;99.90
22813;DHT22;11573;51.334;3.244;2024-02-16T15:12:56;12.20;99.90
22813;DHT22;11573;51.334;3.244;2024-02-16T15:15:23;12.10;99.90
22813;DHT22;11573;51.334;3.244;2024-02-16T15:17:50;12.00;99.90
22813;DHT22;11573;51.334;3.244;2024-02-16T15:20:17;12.00;99.90
22813;DHT22;11573;51.334;3.244;2024-02-16T15:22:44;12.00;99.90
22813;DHT22;11573;51.334;3.244;2024-02-16T15:25:20;11.90;99.90
22813;DHT22;11573;51.334;3.244;2024-02-16T15:27:49;11.80;99.90
22813;DHT22;11573;51.334;3.244;2024-02-16T15:30:18;11.90;99.90
22813;DHT22;11573;51.334;3.244;2024-02-16T15:32:45;11.90;99.90
22813;DHT22;11573;51.334;3.244;2024-02-16T15:35:13;11.80;99.90